静岡空港の過去48時間の天気

静岡空港 (Shizuoka)

現在時刻: 9/19 08:26 JST (9/18 23:26 UTC) 以下の時間は現地時間です。

過去48時間のMETAR気象情報
時間 風向 風速(m/s) 視程 気温(℃) 湿度(%) 気圧(hPa) 天気現象
19 08:00 3 10km以上 25 100 1010 周辺でしゅう雨
19 07:30 東南東 3 10km以上 25 100 1010 周辺でしゅう雨
RJNS 182300Z 08005KT 050V110 9999 VCSH FEW003 SCT025 BKN040 25/25 Q1010
RJNS 182230Z 11005KT 080V140 9999 VCSH FEW000 SCT020 BKN035 25/25 Q1010